createdAt,value
2019-05-22T00:00:02.612Z,122.60
2019-05-22T00:01:02.601Z,122.60
2019-05-22T00:02:02.570Z,125.90
2019-05-22T00:03:03.017Z,129.50
2019-05-22T00:04:02.591Z,111.20
2019-05-22T00:05:02.876Z,117.20
2019-05-22T00:06:02.532Z,116.60
2019-05-22T00:07:02.547Z,111.00
2019-05-22T00:08:02.512Z,132.10
2019-05-22T00:09:02.506Z,130.20
2019-05-22T00:10:02.498Z,139.80
2019-05-22T00:11:02.481Z,132.30
2019-05-22T00:12:02.466Z,135.50
2019-05-22T00:13:02.477Z,127.50
2019-05-22T00:14:02.458Z,156.00
2019-05-22T00:15:03.211Z,139.50
2019-05-22T00:16:02.407Z,152.30
2019-05-22T00:17:02.402Z,150.20
2019-05-22T00:18:02.403Z,161.00
2019-05-22T00:19:02.410Z,129.60
2019-05-22T00:20:02.377Z,156.50
2019-05-22T00:21:02.416Z,144.60
2019-05-22T00:22:02.347Z,164.00
2019-05-22T00:23:02.343Z,167.30
2019-05-22T00:24:02.335Z,150.00
2019-05-22T00:25:02.367Z,150.10
2019-05-22T00:26:02.343Z,164.40
2019-05-22T00:27:02.292Z,185.40
2019-05-22T00:28:02.282Z,209.70
2019-05-22T00:29:02.301Z,171.20
2019-05-22T00:30:02.277Z,194.90
2019-05-22T00:31:02.276Z,172.20
2019-05-22T00:32:02.236Z,205.10
2019-05-22T00:33:02.262Z,191.10
2019-05-22T00:34:02.213Z,172.60
2019-05-22T00:35:02.198Z,205.80
2019-05-22T00:36:02.225Z,219.20
2019-05-22T00:37:02.203Z,163.50
2019-05-22T00:38:02.163Z,193.40
2019-05-22T00:39:02.199Z,162.40
2019-05-22T00:40:02.163Z,157.20
2019-05-22T00:41:02.135Z,169.30
2019-05-22T00:42:02.142Z,148.80
2019-05-22T00:43:05.463Z,200.50
2019-05-22T00:44:03.092Z,171.90
2019-05-22T00:45:02.113Z,173.30
2019-05-22T00:46:02.100Z,144.30
2019-05-22T00:47:02.067Z,168.00
2019-05-22T00:48:02.065Z,188.10
2019-05-22T00:49:02.070Z,206.20
2019-05-22T00:50:02.023Z,183.30
2019-05-22T00:51:02.043Z,199.80
2019-05-22T00:52:02.029Z,162.30
2019-05-22T00:53:02.088Z,157.40
2019-05-22T00:54:01.981Z,165.00
2019-05-22T00:55:02.000Z,166.50
2019-05-22T00:56:01.975Z,171.90
2019-05-22T00:57:02.054Z,174.40
2019-05-22T00:58:01.954Z,170.00
2019-05-22T00:59:02.042Z,188.60
2019-05-22T01:00:02.104Z,204.80
2019-05-22T01:01:01.926Z,184.20
2019-05-22T01:02:01.899Z,172.80
2019-05-22T01:03:01.881Z,170.30
2019-05-22T01:04:01.869Z,183.60
2019-05-22T01:05:01.921Z,187.00
2019-05-22T01:06:01.853Z,212.00
2019-05-22T01:07:01.857Z,181.90
2019-05-22T01:08:01.819Z,189.20
2019-05-22T01:09:01.808Z,187.40
2019-05-22T01:10:02.330Z,194.10
2019-05-22T01:11:01.792Z,239.00
2019-05-22T01:12:02.129Z,173.40
2019-05-22T01:13:01.791Z,171.00
2019-05-22T01:14:01.759Z,196.20
2019-05-22T01:15:01.836Z,191.50
2019-05-22T01:16:01.743Z,194.30
2019-05-22T01:17:01.732Z,220.70
2019-05-22T01:18:01.732Z,258.10
2019-05-22T01:19:01.733Z,273.00
2019-05-22T01:20:01.701Z,226.00
2019-05-22T01:21:01.694Z,202.70
2019-05-22T01:22:01.841Z,188.60
2019-05-22T01:23:01.657Z,216.50
2019-05-22T01:24:01.651Z,214.20
2019-05-22T01:25:01.792Z,188.70
2019-05-22T01:26:01.630Z,188.40
2019-05-22T01:27:01.622Z,205.40
2019-05-22T01:28:01.608Z,238.70
2019-05-22T01:29:01.594Z,258.50
2019-05-22T01:30:01.595Z,209.60
2019-05-22T01:31:01.589Z,223.60
2019-05-22T01:32:01.563Z,207.00
2019-05-22T01:33:01.600Z,192.40
2019-05-22T01:34:01.527Z,252.00
2019-05-22T01:35:01.548Z,283.90
2019-05-22T01:36:01.515Z,297.70
2019-05-22T01:37:01.522Z,226.20
2019-05-22T01:38:01.496Z,244.10
2019-05-22T01:39:01.473Z,176.10
2019-05-22T01:40:01.484Z,168.70
2019-05-22T01:41:01.483Z,190.20
2019-05-22T01:42:01.483Z,170.00
2019-05-22T01:43:01.506Z,181.40
2019-05-22T01:44:01.429Z,186.10
2019-05-22T01:45:06.535Z,173.80
2019-05-22T01:46:01.393Z,153.40
2019-05-22T01:47:01.375Z,161.10
2019-05-22T01:48:01.422Z,165.00
2019-05-22T01:49:01.379Z,234.20
2019-05-22T01:50:01.398Z,189.30
2019-05-22T01:51:01.364Z,236.50
2019-05-22T01:52:01.340Z,236.20
2019-05-22T01:53:01.325Z,267.40
2019-05-22T01:54:01.348Z,298.20
2019-05-22T01:55:01.321Z,239.80
2019-05-22T01:56:01.313Z,225.40
2019-05-22T01:57:01.271Z,202.50
2019-05-22T01:58:01.260Z,198.30
2019-05-22T01:59:01.249Z,244.90
2019-05-22T02:00:01.239Z,213.10
2019-05-22T02:01:01.253Z,382.00
2019-05-22T02:02:01.205Z,241.60
2019-05-22T02:03:01.203Z,289.80
2019-05-22T02:04:01.204Z,383.40
2019-05-22T02:05:01.185Z,377.80
2019-05-22T02:06:01.199Z,342.80
2019-05-22T02:07:01.231Z,362.50
2019-05-22T02:08:01.214Z,464.90
2019-05-22T02:09:01.132Z,398.60
2019-05-22T02:10:01.149Z,314.60
2019-05-22T02:11:01.109Z,312.40
2019-05-22T02:12:01.089Z,321.00
2019-05-22T02:13:01.127Z,430.10
2019-05-22T02:14:01.085Z,521.60
2019-05-22T02:15:01.066Z,429.10
2019-05-22T02:16:01.050Z,462.80
2019-05-22T02:17:01.168Z,516.90
2019-05-22T02:18:01.042Z,415.90
2019-05-22T02:19:01.035Z,543.90
2019-05-22T02:20:01.009Z,567.50
2019-05-22T02:21:00.999Z,428.70
2019-05-22T02:22:00.988Z,371.70
2019-05-22T02:23:00.988Z,396.30
2019-05-22T02:24:00.971Z,551.10
2019-05-22T02:25:00.970Z,451.10
2019-05-22T02:26:00.939Z,411.10
2019-05-22T02:27:00.924Z,541.50
2019-05-22T02:28:00.924Z,548.60
2019-05-22T02:29:00.916Z,579.80
2019-05-22T02:30:00.887Z,590.40
2019-05-22T02:31:00.901Z,685.50
2019-05-22T02:32:00.875Z,605.60
2019-05-22T02:33:00.867Z,608.60
2019-05-22T02:34:00.848Z,563.80
2019-05-22T02:35:00.846Z,428.60
2019-05-22T02:36:00.861Z,305.30
2019-05-22T02:37:00.836Z,320.50
2019-05-22T02:38:00.801Z,324.10
2019-05-22T02:39:00.784Z,341.50
2019-05-22T02:40:00.790Z,435.10
2019-05-22T02:41:00.764Z,306.90
2019-05-22T02:42:00.758Z,327.90
2019-05-22T02:43:00.782Z,284.40
2019-05-22T02:44:00.754Z,366.30
2019-05-22T02:45:00.744Z,307.30
2019-05-22T02:46:00.716Z,368.40
2019-05-22T02:47:17.080Z,402.80
2019-05-22T02:48:01.707Z,450.60
2019-05-22T02:49:00.709Z,344.70
2019-05-22T02:50:00.685Z,348.60
2019-05-22T02:51:00.676Z,286.10
2019-05-22T02:52:00.649Z,260.90
2019-05-22T02:53:00.629Z,237.00
2019-05-22T02:54:00.629Z,291.80
2019-05-22T02:55:00.610Z,269.70
2019-05-22T02:56:00.609Z,312.10
2019-05-22T02:57:00.584Z,315.70
2019-05-22T02:58:00.578Z,279.90
2019-05-22T02:59:00.555Z,237.70
2019-05-22T03:00:00.589Z,273.60
2019-05-22T03:01:00.554Z,263.70
2019-05-22T03:02:00.537Z,251.50
2019-05-22T03:03:00.515Z,233.10
2019-05-22T03:04:00.508Z,268.90
2019-05-22T03:05:00.503Z,274.70
2019-05-22T03:06:00.518Z,239.10
2019-05-22T03:07:00.485Z,248.80
2019-05-22T03:08:00.456Z,227.70
2019-05-22T03:09:00.446Z,241.40
2019-05-22T03:10:00.439Z,325.70
2019-05-22T03:11:00.432Z,312.70
2019-05-22T03:12:00.449Z,318.60
2019-05-22T03:13:00.403Z,208.30
2019-05-22T03:14:00.397Z,186.90
2019-05-22T03:15:00.396Z,193.10
2019-05-22T03:16:00.381Z,223.00
2019-05-22T03:17:00.365Z,155.10
2019-05-22T03:18:00.360Z,181.40
2019-05-22T03:19:08.876Z,151.60
2019-05-22T03:20:01.341Z,160.70
2019-05-22T03:21:00.322Z,162.50
2019-05-22T03:22:00.318Z,131.00
2019-05-22T03:23:00.285Z,164.10
2019-05-22T03:24:00.311Z,131.70
2019-05-22T03:25:00.283Z,193.60
2019-05-22T03:26:00.268Z,148.90
2019-05-22T03:27:00.247Z,137.70
2019-05-22T03:28:00.231Z,145.50
2019-05-22T03:29:00.218Z,118.20
2019-05-22T03:30:00.261Z,116.40
2019-05-22T03:31:00.208Z,126.40
2019-05-22T03:32:00.185Z,119.90
2019-05-22T03:33:00.188Z,112.60
2019-05-22T03:34:00.182Z,124.40
2019-05-22T03:35:00.193Z,130.30
2019-05-22T03:36:00.154Z,146.40
2019-05-22T03:37:00.123Z,139.40
2019-05-22T03:38:00.161Z,124.00
2019-05-22T03:39:00.098Z,153.80
2019-05-22T03:40:00.113Z,118.80
2019-05-22T03:41:00.085Z,127.30
2019-05-22T03:42:00.093Z,109.20
2019-05-22T03:43:00.122Z,120.80
2019-05-22T03:44:00.056Z,101.60
2019-05-22T03:45:00.043Z,107.50
2019-05-22T03:46:00.040Z,120.40
2019-05-22T03:47:00.015Z,107.80
2019-05-22T03:48:00.050Z,122.80
2019-05-22T03:49:00.002Z,121.80
2019-05-22T03:49:59.977Z,118.20
2019-05-22T03:50:59.990Z,127.10
2019-05-22T03:51:59.969Z,147.50
2019-05-22T03:52:59.948Z,145.30
2019-05-22T03:53:59.955Z,134.90
2019-05-22T03:54:59.926Z,127.00
2019-05-22T03:55:59.904Z,127.10
2019-05-22T03:56:59.898Z,116.60
2019-05-22T03:57:59.897Z,149.40
2019-05-22T03:58:59.896Z,136.30
2019-05-22T03:59:59.888Z,113.60
2019-05-22T04:00:59.853Z,156.40
2019-05-22T04:01:59.846Z,134.40
2019-05-22T04:02:59.827Z,216.90
2019-05-22T04:03:59.823Z,166.70
2019-05-22T04:04:59.811Z,128.70
2019-05-22T04:05:59.831Z,169.80
2019-05-22T04:06:59.791Z,176.80
2019-05-22T04:07:59.798Z,166.20
2019-05-22T04:08:59.778Z,163.60
2019-05-22T04:09:59.751Z,135.90
2019-05-22T04:10:59.733Z,129.50
2019-05-22T04:11:59.770Z,120.50
2019-05-22T04:12:59.714Z,128.60
2019-05-22T04:13:59.721Z,136.60
2019-05-22T04:14:59.711Z,120.80
2019-05-22T04:15:59.684Z,110.70
2019-05-22T04:16:59.675Z,120.20
2019-05-22T04:17:59.689Z,111.00
2019-05-22T04:18:59.668Z,130.30
2019-05-22T04:19:59.639Z,112.10
2019-05-22T04:20:59.636Z,122.80
2019-05-22T04:21:59.627Z,98.50
2019-05-22T04:22:59.613Z,118.90
2019-05-22T04:23:59.603Z,134.10
2019-05-22T04:24:59.583Z,143.10
2019-05-22T04:25:59.596Z,111.90
2019-05-22T04:26:59.585Z,104.30
2019-05-22T04:27:59.541Z,134.30
2019-05-22T04:28:59.541Z,118.40
2019-05-22T04:29:59.567Z,119.70
2019-05-22T04:31:00.008Z,126.90
2019-05-22T04:31:59.521Z,120.90
2019-05-22T04:32:59.492Z,128.70
2019-05-22T04:33:59.492Z,130.20
2019-05-22T04:34:59.475Z,110.40
2019-05-22T04:35:59.472Z,120.20
2019-05-22T04:36:59.465Z,109.10
2019-05-22T04:37:59.454Z,136.90
2019-05-22T04:38:59.419Z,115.00
2019-05-22T04:39:59.427Z,117.40
2019-05-22T04:40:59.467Z,128.70
2019-05-22T04:41:59.410Z,121.50
2019-05-22T04:42:59.390Z,132.90
2019-05-22T04:43:59.377Z,181.60
2019-05-22T04:44:59.389Z,146.60
2019-05-22T04:45:59.354Z,137.70
2019-05-22T04:46:59.345Z,119.70
2019-05-22T04:47:59.351Z,143.00
2019-05-22T04:48:59.303Z,150.60
2019-05-22T04:50:07.274Z,140.60
2019-05-22T04:51:00.315Z,140.20
2019-05-22T04:51:59.297Z,118.50
2019-05-22T04:52:59.282Z,106.10
2019-05-22T04:53:59.299Z,101.00
2019-05-22T04:54:59.247Z,126.20
2019-05-22T04:55:59.240Z,106.00
2019-05-22T04:56:59.220Z,95.50
2019-05-22T04:57:59.204Z,100.20
2019-05-22T04:58:59.191Z,84.10
2019-05-22T04:59:59.220Z,85.30
2019-05-22T05:00:59.209Z,98.00
2019-05-22T05:01:59.175Z,94.30
2019-05-22T05:02:59.144Z,90.90
2019-05-22T05:03:59.141Z,100.70
2019-05-22T05:04:59.137Z,90.00
2019-05-22T05:05:59.153Z,115.60
2019-05-22T05:06:59.107Z,91.20
2019-05-22T05:07:59.168Z,114.70
2019-05-22T05:08:59.120Z,114.70
2019-05-22T05:09:59.075Z,91.00
2019-05-22T05:10:59.061Z,100.70
2019-05-22T05:11:59.062Z,94.00
2019-05-22T05:12:59.028Z,92.00
2019-05-22T05:13:59.052Z,85.80
2019-05-22T05:14:59.015Z,116.30
2019-05-22T05:15:59.005Z,89.80
2019-05-22T05:16:59.006Z,100.30
2019-05-22T05:17:59.048Z,96.10
2019-05-22T05:18:58.973Z,105.90
2019-05-22T05:19:58.974Z,79.90
2019-05-22T05:20:58.939Z,100.00
2019-05-22T05:21:58.936Z,82.90
2019-05-22T05:22:58.934Z,82.70
2019-05-22T05:23:58.934Z,97.40
2019-05-22T05:24:58.962Z,83.60
2019-05-22T05:25:58.907Z,86.30
2019-05-22T05:26:58.916Z,78.10
2019-05-22T05:27:58.874Z,81.00
2019-05-22T05:28:58.873Z,97.10
2019-05-22T05:29:58.860Z,93.00
2019-05-22T05:30:58.825Z,78.30
2019-05-22T05:31:58.822Z,74.10
2019-05-22T05:32:58.801Z,77.80
2019-05-22T05:33:58.797Z,79.50
2019-05-22T05:34:58.795Z,100.30
2019-05-22T05:35:58.790Z,73.60
2019-05-22T05:36:58.783Z,79.10
2019-05-22T05:37:58.772Z,68.20
2019-05-22T05:38:58.736Z,69.60
2019-05-22T05:39:58.783Z,70.00
2019-05-22T05:40:58.772Z,69.70
2019-05-22T05:41:58.777Z,80.20
2019-05-22T05:42:58.694Z,72.70
2019-05-22T05:43:58.699Z,73.10
2019-05-22T05:44:58.665Z,86.40
2019-05-22T05:45:58.653Z,78.30
2019-05-22T05:46:58.641Z,85.00
2019-05-22T05:47:58.661Z,71.80
2019-05-22T05:48:58.638Z,79.60
2019-05-22T05:49:58.614Z,73.00
2019-05-22T05:50:58.598Z,75.90
2019-05-22T05:51:58.596Z,74.70
2019-05-22T05:52:58.591Z,81.30
2019-05-22T05:53:58.600Z,77.90
2019-05-22T05:54:58.550Z,72.90
2019-05-22T05:55:58.546Z,71.80
2019-05-22T05:56:58.535Z,69.30
2019-05-22T05:57:58.520Z,63.10
2019-05-22T05:58:58.514Z,66.50
2019-05-22T05:59:58.523Z,59.60
2019-05-22T06:00:58.483Z,64.40
2019-05-22T06:01:58.477Z,64.40
2019-05-22T06:02:58.484Z,66.20
2019-05-22T06:03:58.450Z,61.40
2019-05-22T06:04:58.438Z,68.10
2019-05-22T06:05:58.448Z,62.50
2019-05-22T06:07:00.788Z,57.50
2019-05-22T06:07:58.458Z,67.90
2019-05-22T06:08:58.416Z,72.10
2019-05-22T06:09:58.384Z,60.40
2019-05-22T06:10:58.376Z,66.30
2019-05-22T06:11:58.384Z,63.40
2019-05-22T06:12:58.351Z,61.20
2019-05-22T06:13:58.340Z,69.00
2019-05-22T06:14:58.323Z,66.90
2019-05-22T06:15:58.317Z,62.40
2019-05-22T06:16:58.302Z,52.70
2019-05-22T06:17:58.326Z,59.50
2019-05-22T06:18:58.281Z,53.10
2019-05-22T06:19:58.269Z,56.50
2019-05-22T06:21:03.811Z,60.50
2019-05-22T06:21:59.264Z,62.60
2019-05-22T06:22:58.236Z,59.20
2019-05-22T06:23:58.249Z,54.50
2019-05-22T06:24:58.210Z,52.90
2019-05-22T06:25:58.200Z,55.40
2019-05-22T06:26:58.272Z,48.80
2019-05-22T06:27:58.174Z,55.20
2019-05-22T06:28:58.192Z,55.60
2019-05-22T06:29:58.172Z,49.90
2019-05-22T06:30:58.139Z,49.10
2019-05-22T06:31:58.137Z,54.60
2019-05-22T06:32:58.121Z,50.10
2019-05-22T06:33:58.107Z,54.00
2019-05-22T06:34:59.797Z,60.10
2019-05-22T06:35:58.108Z,55.10
2019-05-22T06:36:58.077Z,48.50
2019-05-22T06:37:58.060Z,51.00
2019-05-22T06:38:58.058Z,46.30
2019-05-22T06:39:58.069Z,46.90
2019-05-22T06:40:58.077Z,46.50
2019-05-22T06:41:58.033Z,46.70
2019-05-22T06:42:58.014Z,46.50
2019-05-22T06:43:57.995Z,52.10
2019-05-22T06:44:57.980Z,49.50
2019-05-22T06:45:57.968Z,44.70
2019-05-22T06:46:57.959Z,45.90
2019-05-22T06:47:57.991Z,40.90
2019-05-22T06:48:57.931Z,49.00
2019-05-22T06:49:57.961Z,52.80
2019-05-22T06:50:57.918Z,48.80
2019-05-22T06:51:57.908Z,47.90
2019-05-22T06:53:09.453Z,45.40
2019-05-22T06:53:58.891Z,47.90
2019-05-22T06:54:58.631Z,41.40
2019-05-22T06:55:57.853Z,43.30
2019-05-22T06:56:57.837Z,41.10
2019-05-22T06:57:57.827Z,44.50
2019-05-22T06:58:57.817Z,46.30
2019-05-22T07:00:12.220Z,43.50
2019-05-22T07:00:58.791Z,45.10
2019-05-22T07:02:01.475Z,42.80
2019-05-22T07:02:57.769Z,50.00
2019-05-22T07:03:57.758Z,44.40
2019-05-22T07:04:57.750Z,46.30
2019-05-22T07:05:57.754Z,48.40
2019-05-22T07:06:57.735Z,45.50
2019-05-22T07:07:57.712Z,49.40
2019-05-22T07:08:57.699Z,38.70
2019-05-22T07:09:57.691Z,38.50
2019-05-22T07:10:57.689Z,39.10
2019-05-22T07:11:57.684Z,38.60
2019-05-22T07:12:57.656Z,40.90
2019-05-22T07:13:57.650Z,42.30
2019-05-22T07:14:57.634Z,39.40
2019-05-22T07:15:57.624Z,36.60
2019-05-22T07:16:57.610Z,34.80
2019-05-22T07:17:57.620Z,39.30
2019-05-22T07:18:57.585Z,37.80
2019-05-22T07:19:57.577Z,38.30
2019-05-22T07:20:57.577Z,36.00
2019-05-22T07:21:57.554Z,35.10
2019-05-22T07:22:57.548Z,35.30
2019-05-22T07:23:57.552Z,32.30
2019-05-22T07:24:57.541Z,32.80
2019-05-22T07:25:57.524Z,35.90
2019-05-22T07:26:57.492Z,34.30
2019-05-22T07:27:57.490Z,36.30
2019-05-22T07:29:00.858Z,35.60
2019-05-22T07:29:58.479Z,32.90
2019-05-22T07:30:57.454Z,28.60
2019-05-22T07:31:57.441Z,34.60
2019-05-22T07:32:57.449Z,34.70
2019-05-22T07:33:57.413Z,35.60
2019-05-22T07:34:57.418Z,36.00
2019-05-22T07:36:09.215Z,33.80
2019-05-22T07:36:58.380Z,33.00
2019-05-22T07:37:57.362Z,36.70
2019-05-22T07:38:57.352Z,32.60
2019-05-22T07:39:57.341Z,30.20
2019-05-22T07:40:57.329Z,28.70
2019-05-22T07:41:57.334Z,34.10
2019-05-22T07:42:57.307Z,29.20
2019-05-22T07:43:57.294Z,31.00
2019-05-22T07:44:57.281Z,35.00
2019-05-22T07:45:57.292Z,33.10
2019-05-22T07:46:57.253Z,31.20
2019-05-22T07:47:57.262Z,31.50
2019-05-22T07:48:57.229Z,31.90
2019-05-22T07:49:57.223Z,33.70
2019-05-22T07:50:57.205Z,32.90
2019-05-22T07:52:01.619Z,33.50
2019-05-22T07:52:57.190Z,32.10
2019-05-22T07:53:57.200Z,30.00
2019-05-22T07:54:57.165Z,28.20
2019-05-22T07:55:57.151Z,29.60
2019-05-22T07:56:57.134Z,30.00
2019-05-22T07:57:57.126Z,30.60
2019-05-22T07:58:59.093Z,31.40
2019-05-22T07:59:57.127Z,29.00
2019-05-22T08:00:57.092Z,31.20
2019-05-22T08:01:57.076Z,28.20
2019-05-22T08:02:57.064Z,32.00
2019-05-22T08:03:57.051Z,25.10
2019-05-22T08:04:57.041Z,28.00
2019-05-22T08:05:57.043Z,28.60
2019-05-22T08:06:57.014Z,27.50
2019-05-22T08:07:57.000Z,27.00
2019-05-22T08:08:56.990Z,29.70
2019-05-22T08:09:56.978Z,26.50
2019-05-22T08:10:56.966Z,26.60
2019-05-22T08:11:56.990Z,29.80
2019-05-22T08:12:56.942Z,28.70
2019-05-22T08:13:56.944Z,29.40
2019-05-22T08:14:56.919Z,30.20
2019-05-22T08:15:56.906Z,29.00
2019-05-22T08:16:56.899Z,27.90
2019-05-22T08:17:56.906Z,31.40
2019-05-22T08:18:56.873Z,27.50
2019-05-22T08:19:56.867Z,28.60
2019-05-22T08:20:56.852Z,27.90
2019-05-22T08:22:06.732Z,29.90
2019-05-22T08:22:57.843Z,28.30
2019-05-22T08:23:56.835Z,29.10
2019-05-22T08:24:56.826Z,28.70
2019-05-22T08:25:56.791Z,30.10
2019-05-22T08:26:56.777Z,32.10
2019-05-22T08:27:56.773Z,30.60
2019-05-22T08:28:56.778Z,31.20
2019-05-22T08:29:57.196Z,33.70
2019-05-22T08:30:56.731Z,31.40
2019-05-22T08:31:56.744Z,33.90
2019-05-22T08:32:56.741Z,36.00
2019-05-22T08:33:56.705Z,35.90
2019-05-22T08:34:56.712Z,37.60
2019-05-22T08:35:56.688Z,34.70
2019-05-22T08:36:56.709Z,38.70
2019-05-22T08:37:56.656Z,36.80
2019-05-22T08:38:56.666Z,35.90
2019-05-22T08:39:56.693Z,36.30
2019-05-22T08:40:56.677Z,35.80
2019-05-22T08:41:56.623Z,35.00
2019-05-22T08:42:56.601Z,35.60
2019-05-22T08:44:15.285Z,35.10
2019-05-22T08:44:57.571Z,36.80
2019-05-22T08:45:56.609Z,32.70
2019-05-22T08:46:56.645Z,34.20
2019-05-22T08:47:56.564Z,35.20
2019-05-22T08:48:56.537Z,34.70
2019-05-22T08:49:56.534Z,33.40
2019-05-22T08:50:56.518Z,32.10
2019-05-22T08:51:56.496Z,34.40
2019-05-22T08:52:56.554Z,31.40
2019-05-22T08:53:56.471Z,30.90
2019-05-22T08:54:56.487Z,32.40
2019-05-22T08:55:56.477Z,31.80
2019-05-22T08:56:56.436Z,31.10
2019-05-22T08:57:56.444Z,29.90
2019-05-22T08:58:56.435Z,36.40
2019-05-22T08:59:56.426Z,32.20
2019-05-22T09:00:56.405Z,31.30
2019-05-22T09:01:56.386Z,33.00
2019-05-22T09:02:56.381Z,33.00
2019-05-22T09:03:56.373Z,31.50
2019-05-22T09:04:56.415Z,31.10
2019-05-22T09:05:56.357Z,31.40
2019-05-22T09:06:56.326Z,30.10
2019-05-22T09:07:56.319Z,31.40
2019-05-22T09:08:56.312Z,30.60
2019-05-22T09:09:56.313Z,30.40
2019-05-22T09:10:56.337Z,32.30
2019-05-22T09:11:56.286Z,32.40
2019-05-22T09:12:56.277Z,29.00
2019-05-22T09:13:56.246Z,29.60
2019-05-22T09:14:56.241Z,29.50
2019-05-22T09:15:56.244Z,32.00
2019-05-22T09:16:56.288Z,30.00
2019-05-22T09:17:56.229Z,29.50
2019-05-22T09:18:56.189Z,27.80
2019-05-22T09:19:56.227Z,28.10
2019-05-22T09:20:56.172Z,27.90
2019-05-22T09:21:56.155Z,28.40
2019-05-22T09:22:56.167Z,28.40
2019-05-22T09:23:56.135Z,28.20
2019-05-22T09:24:56.155Z,30.00
2019-05-22T09:25:56.122Z,30.10
2019-05-22T09:26:56.130Z,30.50
2019-05-22T09:27:56.104Z,31.70
2019-05-22T09:28:56.109Z,29.60
2019-05-22T09:29:56.100Z,30.40
2019-05-22T09:30:56.065Z,31.40
2019-05-22T09:31:56.048Z,29.50
2019-05-22T09:32:56.042Z,28.40
2019-05-22T09:33:56.027Z,28.20
2019-05-22T09:34:56.034Z,30.50
2019-05-22T09:35:56.004Z,26.70
2019-05-22T09:36:55.992Z,25.30
2019-05-22T09:37:55.990Z,26.90
2019-05-22T09:38:55.971Z,25.00
2019-05-22T09:39:55.964Z,25.20
2019-05-22T09:40:55.968Z,24.90
2019-05-22T09:41:55.955Z,27.00
2019-05-22T09:42:55.978Z,25.20
2019-05-22T09:43:55.914Z,25.10
2019-05-22T09:44:55.909Z,24.30
2019-05-22T09:45:55.889Z,24.50
2019-05-22T09:46:55.894Z,24.70
2019-05-22T09:47:55.900Z,22.50
2019-05-22T09:48:55.861Z,23.30
2019-05-22T09:49:55.852Z,23.70
2019-05-22T09:50:55.839Z,22.40
2019-05-22T09:51:55.825Z,21.90
2019-05-22T09:52:57.868Z,23.30
2019-05-22T09:53:55.819Z,21.70
2019-05-22T09:54:55.791Z,21.30
2019-05-22T09:55:55.781Z,23.50
2019-05-22T09:56:55.766Z,24.20
2019-05-22T09:57:55.763Z,22.90
2019-05-22T09:58:55.769Z,22.50
2019-05-22T09:59:55.735Z,22.90
2019-05-22T10:00:55.722Z,22.80
2019-05-22T10:01:55.718Z,21.50
2019-05-22T10:02:55.701Z,21.70
2019-05-22T10:03:55.695Z,21.90
2019-05-22T10:04:55.730Z,22.10
2019-05-22T10:05:55.803Z,22.50
2019-05-22T10:06:55.660Z,21.80
2019-05-22T10:08:00.998Z,21.90
2019-05-22T10:08:56.633Z,20.60
2019-05-22T10:09:55.620Z,21.30
2019-05-22T10:10:55.642Z,20.00
2019-05-22T10:11:55.599Z,20.30
2019-05-22T10:12:55.605Z,20.90
2019-05-22T10:13:55.577Z,20.90
2019-05-22T10:14:55.824Z,20.50
2019-05-22T10:15:55.552Z,20.70
2019-05-22T10:16:55.569Z,20.40
2019-05-22T10:17:55.537Z,20.90
2019-05-22T10:18:55.525Z,18.80
2019-05-22T10:19:55.517Z,20.60
2019-05-22T10:20:55.523Z,20.80
2019-05-22T10:21:55.487Z,19.70
2019-05-22T10:22:55.497Z,21.90
2019-05-22T10:23:55.464Z,19.40
2019-05-22T10:25:13.802Z,20.60
2019-05-22T10:25:56.443Z,19.40
2019-05-22T10:26:55.796Z,21.10
2019-05-22T10:27:59.028Z,21.70
2019-05-22T10:28:55.426Z,22.30
2019-05-22T10:29:55.403Z,23.00
2019-05-22T10:30:56.962Z,22.40
2019-05-22T10:31:55.392Z,23.60
2019-05-22T10:32:55.369Z,24.20
2019-05-22T10:33:55.354Z,22.80
2019-05-22T10:34:57.698Z,26.70
2019-05-22T10:35:55.361Z,26.40
2019-05-22T10:36:55.326Z,26.90
2019-05-22T10:37:55.317Z,26.40
2019-05-22T10:38:55.322Z,29.20
2019-05-22T10:39:55.308Z,28.80
2019-05-22T10:40:58.777Z,26.70
2019-05-22T10:41:55.269Z,26.20
2019-05-22T10:42:55.294Z,22.90
2019-05-22T10:43:55.370Z,24.00
2019-05-22T10:44:55.242Z,23.20
2019-05-22T10:45:55.234Z,24.20
2019-05-22T10:46:55.235Z,24.70
2019-05-22T10:47:55.206Z,24.20
2019-05-22T10:48:55.201Z,26.30
2019-05-22T10:49:55.187Z,24.30
2019-05-22T10:50:55.176Z,24.10
2019-05-22T10:51:55.160Z,23.70
2019-05-22T10:52:55.285Z,23.50
2019-05-22T10:53:55.138Z,23.00
2019-05-22T10:54:56.111Z,22.70
2019-05-22T10:55:55.137Z,23.50
2019-05-22T10:56:55.110Z,22.00
2019-05-22T10:57:55.167Z,22.80
2019-05-22T10:58:55.129Z,24.30
2019-05-22T10:59:55.074Z,24.30
2019-05-22T11:00:55.063Z,24.20
2019-05-22T11:01:55.200Z,23.90
2019-05-22T11:02:55.035Z,23.00
2019-05-22T11:03:55.046Z,22.80
2019-05-22T11:04:55.036Z,23.60
2019-05-22T11:06:06.538Z,24.30
2019-05-22T11:06:55.995Z,26.50
2019-05-22T11:07:54.990Z,26.00
2019-05-22T11:08:54.974Z,25.50
2019-05-22T11:09:54.962Z,23.30
2019-05-22T11:10:55.051Z,23.70
2019-05-22T11:11:54.939Z,23.60
2019-05-22T11:12:54.999Z,22.10
2019-05-22T11:14:01.346Z,23.20
2019-05-22T11:14:55.912Z,22.00
2019-05-22T11:15:54.898Z,23.10
2019-05-22T11:16:54.913Z,22.20
2019-05-22T11:17:54.882Z,23.80
2019-05-22T11:18:54.868Z,22.50
2019-05-22T11:19:54.856Z,22.00
2019-05-22T11:20:54.846Z,22.80
2019-05-22T11:21:57.026Z,23.70
2019-05-22T11:22:54.955Z,24.30
2019-05-22T11:23:54.829Z,23.40
2019-05-22T11:24:54.803Z,22.20
2019-05-22T11:25:54.830Z,22.60
2019-05-22T11:26:54.787Z,22.70
2019-05-22T11:27:54.770Z,21.90
2019-05-22T11:28:54.777Z,21.20
2019-05-22T11:29:54.756Z,22.20
2019-05-22T11:30:54.752Z,21.40
2019-05-22T11:31:54.736Z,22.30
2019-05-22T11:32:54.822Z,21.90
2019-05-22T11:33:54.736Z,22.10
2019-05-22T11:34:54.835Z,21.80
2019-05-22T11:35:54.737Z,22.20
2019-05-22T11:36:54.677Z,21.50
2019-05-22T11:37:54.675Z,21.50
2019-05-22T11:38:54.682Z,21.50
2019-05-22T11:39:54.665Z,22.50
2019-05-22T11:40:54.652Z,20.90
2019-05-22T11:41:54.634Z,22.30
2019-05-22T11:42:54.685Z,21.80
2019-05-22T11:43:54.602Z,21.50
2019-05-22T11:44:54.592Z,20.10
2019-05-22T11:45:54.577Z,21.60
2019-05-22T11:46:54.586Z,20.20
2019-05-22T11:47:54.559Z,19.90
2019-05-22T11:48:54.544Z,20.20
2019-05-22T11:49:54.599Z,20.50
2019-05-22T11:50:54.621Z,21.20
2019-05-22T11:51:54.519Z,20.90
2019-05-22T11:52:54.520Z,21.30
2019-05-22T11:54:08.244Z,21.90
2019-05-22T11:54:55.479Z,20.70
2019-05-22T11:55:54.478Z,20.50
2019-05-22T11:56:54.456Z,20.40
2019-05-22T11:57:54.446Z,20.30
2019-05-22T11:58:54.466Z,19.60
2019-05-22T11:59:54.431Z,19.80
2019-05-22T12:00:54.416Z,18.40
2019-05-22T12:01:54.405Z,18.40
2019-05-22T12:02:54.391Z,18.30
2019-05-22T12:03:54.380Z,18.60
2019-05-22T12:04:54.395Z,18.80
2019-05-22T12:05:54.366Z,19.40
2019-05-22T12:06:54.348Z,18.70
2019-05-22T12:07:54.346Z,19.10
2019-05-22T12:08:54.332Z,18.60
2019-05-22T12:09:54.328Z,19.10
2019-05-22T12:10:54.321Z,19.70
2019-05-22T12:11:54.296Z,20.20
2019-05-22T12:12:54.353Z,20.30
2019-05-22T12:13:54.280Z,19.70
2019-05-22T12:14:54.270Z,18.10
2019-05-22T12:15:54.249Z,18.50
2019-05-22T12:16:54.263Z,18.80
2019-05-22T12:17:54.230Z,20.30
2019-05-22T12:18:54.266Z,18.60
2019-05-22T12:19:54.222Z,18.60
2019-05-22T12:20:54.230Z,19.20
2019-05-22T12:21:54.265Z,18.70
2019-05-22T12:22:54.194Z,18.10
2019-05-22T12:23:54.161Z,18.50
2019-05-22T12:24:54.150Z,18.40
2019-05-22T12:25:54.134Z,18.10
2019-05-22T12:26:54.131Z,18.20
2019-05-22T12:27:54.118Z,18.30
2019-05-22T12:28:54.122Z,18.90
2019-05-22T12:29:54.145Z,18.90
2019-05-22T12:30:54.081Z,18.40
2019-05-22T12:31:54.072Z,18.10
2019-05-22T12:32:54.074Z,17.50
2019-05-22T12:33:54.050Z,17.90
2019-05-22T12:34:54.058Z,17.50
2019-05-22T12:35:54.024Z,17.10
2019-05-22T12:36:54.038Z,18.10
2019-05-22T12:37:54.004Z,18.20
2019-05-22T12:38:53.994Z,17.70
2019-05-22T12:39:53.990Z,18.90
2019-05-22T12:40:53.996Z,17.30
2019-05-22T12:41:53.965Z,18.10